createdAt,value
2023-03-17T00:00:53.501Z,1.50
2023-03-17T00:03:27.026Z,4.30
2023-03-17T00:05:54.295Z,2.38
2023-03-17T00:08:28.510Z,1.50
2023-03-17T00:10:55.687Z,4.05
2023-03-17T00:13:22.259Z,1.70
2023-03-17T00:15:50.679Z,1.15
2023-03-17T00:18:18.037Z,1.98
2023-03-17T00:20:45.103Z,1.48
2023-03-17T00:23:16.199Z,0.93
2023-03-17T00:25:43.379Z,2.35
2023-03-17T00:28:15.207Z,1.15
2023-03-17T00:30:41.564Z,1.95
2023-03-17T00:33:10.112Z,1.08
2023-03-17T00:35:36.627Z,1.55
2023-03-17T00:38:03.016Z,1.63
2023-03-17T00:40:31.073Z,4.50
2023-03-17T00:42:59.888Z,3.58
2023-03-17T00:45:27.155Z,2.67
2023-03-17T00:47:55.019Z,3.70
2023-03-17T00:50:25.333Z,6.40
2023-03-17T00:52:53.232Z,3.15
2023-03-17T00:55:20.071Z,4.03
2023-03-17T00:57:47.398Z,2.85
2023-03-17T01:00:27.049Z,2.85
2023-03-17T01:02:54.503Z,3.85
2023-03-17T01:05:21.869Z,2.63
2023-03-17T01:07:52.769Z,3.63
2023-03-17T01:12:45.636Z,2.80
2023-03-17T01:15:12.884Z,2.50
2023-03-17T01:17:40.226Z,1.95
2023-03-17T01:20:07.329Z,3.75
2023-03-17T01:22:33.643Z,2.65
2023-03-17T01:25:00.102Z,1.98
2023-03-17T01:27:26.480Z,2.78
2023-03-17T01:29:53.789Z,10.52
2023-03-17T01:32:20.055Z,4.10
2023-03-17T01:34:46.525Z,3.70
2023-03-17T01:37:15.014Z,3.65
2023-03-17T01:39:41.877Z,9.90
2023-03-17T01:42:08.210Z,2.25
2023-03-17T01:44:34.481Z,2.08
2023-03-17T01:47:01.084Z,2.20
2023-03-17T01:49:27.403Z,2.20
2023-03-17T01:52:00.836Z,2.17
2023-03-17T01:54:45.704Z,1.80
2023-03-17T01:57:23.210Z,7.05
2023-03-17T01:59:51.927Z,2.17
2023-03-17T02:02:28.514Z,1.98
2023-03-17T02:04:56.707Z,2.38
2023-03-17T02:07:23.713Z,8.05
2023-03-17T02:09:51.147Z,3.47
2023-03-17T02:12:17.474Z,2.42
2023-03-17T02:14:44.199Z,1.90
2023-03-17T02:17:10.607Z,2.22
2023-03-17T02:19:37.374Z,4.10
2023-03-17T02:22:03.636Z,5.72
2023-03-17T02:24:43.193Z,2.80
2023-03-17T02:27:41.888Z,3.80
2023-03-17T02:30:09.456Z,2.05
2023-03-17T02:32:36.604Z,2.17
2023-03-17T02:35:03.013Z,3.17
2023-03-17T02:37:29.337Z,4.00
2023-03-17T02:39:55.656Z,5.15
2023-03-17T02:42:22.061Z,4.28
2023-03-17T02:44:48.520Z,2.05
2023-03-17T02:47:15.215Z,3.20
2023-03-17T02:49:41.483Z,2.53
2023-03-17T02:52:09.219Z,3.25
2023-03-17T02:54:35.906Z,1.80
2023-03-17T02:57:02.184Z,3.25
2023-03-17T02:59:28.525Z,2.72
2023-03-17T03:01:56.145Z,3.45
2023-03-17T03:04:22.637Z,9.00
2023-03-17T03:06:48.940Z,3.08
2023-03-17T03:09:15.381Z,3.33
2023-03-17T03:11:42.673Z,1.83
2023-03-17T03:14:09.078Z,3.08
2023-03-17T03:16:35.459Z,3.67
2023-03-17T03:19:02.141Z,2.95
2023-03-17T03:21:28.485Z,2.33
2023-03-17T03:23:54.822Z,1.90
2023-03-17T03:26:21.420Z,1.92
2023-03-17T03:28:47.816Z,2.30
2023-03-17T03:31:14.313Z,4.45
2023-03-17T03:33:41.312Z,2.00
2023-03-17T03:36:08.734Z,1.70
2023-03-17T03:38:35.589Z,1.95
2023-03-17T03:41:01.994Z,2.30
2023-03-17T03:43:28.290Z,1.25
2023-03-17T03:45:54.874Z,1.08
2023-03-17T03:48:21.708Z,2.05
2023-03-17T03:50:48.176Z,0.82
2023-03-17T03:53:14.504Z,1.20
2023-03-17T03:55:41.170Z,1.13
2023-03-17T03:58:08.743Z,1.95
2023-03-17T04:00:35.305Z,1.05
2023-03-17T04:03:01.781Z,1.05
2023-03-17T04:05:28.211Z,2.17
2023-03-17T04:07:54.432Z,0.77
2023-03-17T04:10:23.115Z,0.80
2023-03-17T04:12:49.501Z,0.73
2023-03-17T04:15:17.101Z,2.65
2023-03-17T04:17:43.550Z,2.78
2023-03-17T04:20:10.767Z,1.65
2023-03-17T04:22:37.114Z,1.25
2023-03-17T04:25:03.655Z,0.70
2023-03-17T04:27:29.964Z,1.05
2023-03-17T04:29:56.493Z,4.10
2023-03-17T04:32:23.445Z,3.53
2023-03-17T04:34:51.245Z,1.08
2023-03-17T04:37:17.730Z,4.70
2023-03-17T04:39:43.956Z,1.95
2023-03-17T04:42:10.506Z,0.88
2023-03-17T04:44:36.813Z,1.30
2023-03-17T04:47:03.184Z,0.85
2023-03-17T04:49:29.537Z,2.45
2023-03-17T04:51:56.130Z,1.42
2023-03-17T04:54:22.397Z,3.60
2023-03-17T04:56:48.694Z,0.82
2023-03-17T04:59:16.230Z,2.38
2023-03-17T05:01:43.675Z,1.73
2023-03-17T05:04:11.151Z,1.35
2023-03-17T05:06:40.583Z,4.38
2023-03-17T05:09:06.957Z,1.08
2023-03-17T05:11:33.360Z,0.60
2023-03-17T05:13:59.597Z,2.25
2023-03-17T05:16:26.013Z,1.08
2023-03-17T05:18:52.401Z,1.27
2023-03-17T05:21:18.770Z,1.58
2023-03-17T05:23:45.163Z,1.27
2023-03-17T05:26:11.486Z,2.05
2023-03-17T05:28:38.110Z,1.23
2023-03-17T05:31:05.290Z,1.40
2023-03-17T05:33:32.978Z,1.33
2023-03-17T05:36:00.427Z,1.15
2023-03-17T05:38:26.787Z,1.23
2023-03-17T05:40:53.521Z,1.60
2023-03-17T05:43:19.960Z,1.30
2023-03-17T05:45:50.611Z,5.15
2023-03-17T05:48:17.121Z,1.20
2023-03-17T05:50:44.430Z,1.27
2023-03-17T05:53:10.776Z,1.10
2023-03-17T05:55:37.320Z,1.33
2023-03-17T05:58:05.107Z,4.63
2023-03-17T06:00:32.025Z,3.47
2023-03-17T06:02:58.572Z,0.95
2023-03-17T06:05:25.186Z,1.10
2023-03-17T06:07:56.100Z,2.33
2023-03-17T06:10:23.316Z,1.13
2023-03-17T06:12:49.635Z,2.80
2023-03-17T06:15:17.000Z,1.08
2023-03-17T06:17:43.426Z,4.03
2023-03-17T06:20:10.300Z,2.00
2023-03-17T06:22:37.314Z,2.22
2023-03-17T06:25:04.328Z,2.60
2023-03-17T06:27:30.751Z,1.20
2023-03-17T06:29:57.466Z,6.40
2023-03-17T06:32:23.760Z,2.70
2023-03-17T06:34:51.136Z,1.17
2023-03-17T06:37:17.460Z,2.75
2023-03-17T06:39:43.876Z,1.05
2023-03-17T06:42:10.180Z,0.95
2023-03-17T06:44:37.139Z,3.60
2023-03-17T06:47:03.516Z,4.50
2023-03-17T06:49:29.847Z,1.13
2023-03-17T06:51:56.397Z,1.70
2023-03-17T06:54:25.275Z,2.10
2023-03-17T06:56:52.524Z,3.17
2023-03-17T06:59:19.751Z,1.88
2023-03-17T07:01:46.475Z,1.70
2023-03-17T07:04:12.875Z,2.20
2023-03-17T07:06:39.189Z,1.45
2023-03-17T07:09:07.407Z,1.58
2023-03-17T07:11:33.746Z,3.10
2023-03-17T07:14:00.496Z,1.52
2023-03-17T07:16:27.662Z,4.88
2023-03-17T07:18:54.067Z,2.42
2023-03-17T07:21:20.469Z,3.80
2023-03-17T07:23:46.819Z,2.15
2023-03-17T07:26:13.199Z,2.83
2023-03-17T07:28:40.340Z,1.40
2023-03-17T07:31:11.466Z,1.40
2023-03-17T07:33:38.011Z,2.10
2023-03-17T07:36:07.146Z,3.03
2023-03-17T07:38:33.769Z,3.00
2023-03-17T07:41:00.692Z,6.95
2023-03-17T07:43:27.065Z,1.58
2023-03-17T07:45:53.531Z,1.50
2023-03-17T07:48:19.805Z,4.10
2023-03-17T07:50:46.208Z,2.70
2023-03-17T07:53:12.757Z,5.55
2023-03-17T07:55:39.098Z,3.17
2023-03-17T07:58:05.947Z,1.10
2023-03-17T08:00:32.632Z,2.22
2023-03-17T08:03:09.482Z,3.17
2023-03-17T08:05:36.920Z,3.30
2023-03-17T08:08:03.234Z,2.85
2023-03-17T08:10:30.173Z,2.35
2023-03-17T08:12:57.020Z,3.13
2023-03-17T08:15:25.455Z,2.53
2023-03-17T08:17:51.712Z,3.38
2023-03-17T08:20:19.177Z,2.55
2023-03-17T08:22:45.510Z,3.25
2023-03-17T08:25:18.822Z,2.00
2023-03-17T08:27:45.245Z,2.78
2023-03-17T08:30:12.723Z,4.82
2023-03-17T08:32:39.072Z,1.65
2023-03-17T08:35:06.332Z,1.52
2023-03-17T08:37:32.712Z,3.50
2023-03-17T08:39:59.055Z,2.63
2023-03-17T08:42:25.873Z,3.88
2023-03-17T08:44:52.411Z,4.20
2023-03-17T08:47:18.718Z,3.03
2023-03-17T08:49:45.021Z,1.98
2023-03-17T08:52:11.260Z,2.08
2023-03-17T08:54:37.540Z,3.15
2023-03-17T08:57:04.158Z,1.98
2023-03-17T08:59:30.451Z,1.67
2023-03-17T09:01:56.816Z,3.38
2023-03-17T09:04:23.398Z,6.13
2023-03-17T09:07:02.738Z,2.20
2023-03-17T09:09:31.058Z,4.63
2023-03-17T09:11:57.384Z,2.00
2023-03-17T09:14:24.761Z,3.47
2023-03-17T09:16:51.307Z,1.77
2023-03-17T09:19:17.886Z,2.50
2023-03-17T09:21:44.446Z,2.88
2023-03-17T09:24:10.870Z,2.40
2023-03-17T09:26:37.116Z,2.85
2023-03-17T09:29:04.655Z,4.38
2023-03-17T09:31:31.705Z,9.88
2023-03-17T09:33:58.256Z,4.10
2023-03-17T09:36:24.504Z,4.75
2023-03-17T09:38:51.186Z,2.78
2023-03-17T09:41:20.641Z,5.25
2023-03-17T09:44:05.626Z,4.50
2023-03-17T09:46:41.226Z,3.15
2023-03-17T09:49:08.745Z,5.88
2023-03-17T09:51:35.866Z,3.55
2023-03-17T09:54:03.185Z,2.63
2023-03-17T09:56:31.746Z,3.83
2023-03-17T09:58:59.705Z,2.58
2023-03-17T10:01:26.420Z,4.00
2023-03-17T10:03:52.842Z,10.80
2023-03-17T10:06:33.483Z,2.22
2023-03-17T10:09:18.447Z,5.72
2023-03-17T10:11:48.727Z,3.88
2023-03-17T10:14:33.650Z,4.07
2023-03-17T10:17:26.405Z,4.18
2023-03-17T10:20:11.490Z,3.08
2023-03-17T10:22:41.146Z,3.22
2023-03-17T10:25:14.570Z,2.92
2023-03-17T10:27:41.244Z,7.50
2023-03-17T10:30:15.363Z,3.15
2023-03-17T10:32:42.062Z,2.60
2023-03-17T10:35:10.700Z,4.95
2023-03-17T10:37:37.611Z,7.38
2023-03-17T10:40:05.576Z,2.50
2023-03-17T10:42:32.979Z,4.07
2023-03-17T10:45:16.872Z,3.65
2023-03-17T10:47:48.052Z,5.20
2023-03-17T10:50:32.135Z,4.03
2023-03-17T10:53:00.575Z,2.45
2023-03-17T10:55:32.318Z,3.63
2023-03-17T10:58:03.860Z,2.35
2023-03-17T11:00:35.125Z,2.90
2023-03-17T11:03:24.812Z,3.15
2023-03-17T11:05:55.117Z,3.88
2023-03-17T11:08:21.818Z,4.95
2023-03-17T11:10:53.680Z,2.65
2023-03-17T11:13:19.958Z,2.67
2023-03-17T11:15:48.958Z,4.38
2023-03-17T11:18:34.196Z,4.03
2023-03-17T11:21:11.532Z,8.15
2023-03-17T11:23:50.212Z,2.63
2023-03-17T11:26:38.090Z,2.38
2023-03-17T11:29:13.238Z,3.00
2023-03-17T11:31:48.763Z,2.28
2023-03-17T11:34:30.652Z,2.40
2023-03-17T11:37:06.743Z,4.43
2023-03-17T11:39:49.251Z,2.70
2023-03-17T11:42:25.786Z,3.33
2023-03-17T11:44:58.964Z,1.83
2023-03-17T11:47:28.329Z,3.92
2023-03-17T11:50:15.529Z,2.53
2023-03-17T11:53:01.768Z,3.22
2023-03-17T11:55:36.529Z,6.40
2023-03-17T11:58:10.449Z,3.20
2023-03-17T12:00:42.917Z,4.85
2023-03-17T12:03:13.062Z,3.45
2023-03-17T12:05:39.771Z,3.60
2023-03-17T12:08:11.995Z,3.10
2023-03-17T12:10:45.273Z,3.38
2023-03-17T12:13:11.931Z,3.97
2023-03-17T12:15:41.719Z,5.40
2023-03-17T12:18:14.942Z,3.07
2023-03-17T12:20:54.244Z,5.03
2023-03-17T12:23:32.746Z,11.52
2023-03-17T12:26:06.826Z,2.22
2023-03-17T12:28:38.787Z,3.97
2023-03-17T12:31:05.790Z,4.25
2023-03-17T12:33:51.773Z,4.55
2023-03-17T12:36:18.589Z,2.85
2023-03-17T12:38:53.782Z,4.68
2023-03-17T12:41:32.770Z,4.28
2023-03-17T12:44:17.935Z,2.80
2023-03-17T12:47:02.612Z,3.65
2023-03-17T12:49:42.126Z,4.68
2023-03-17T12:52:17.257Z,5.07
2023-03-17T12:54:45.494Z,2.40
2023-03-17T12:57:17.654Z,5.05
2023-03-17T12:59:46.492Z,3.03
2023-03-17T13:02:15.505Z,2.58
2023-03-17T13:05:00.896Z,3.10
2023-03-17T13:07:33.532Z,2.50
2023-03-17T13:10:02.919Z,4.43
2023-03-17T13:12:44.573Z,5.38
2023-03-17T13:15:23.488Z,5.60
2023-03-17T13:17:50.046Z,4.55
2023-03-17T13:20:18.115Z,4.35
2023-03-17T13:23:13.757Z,8.55
2023-03-17T13:25:41.758Z,14.18
2023-03-17T13:28:15.093Z,6.68
2023-03-17T13:30:44.624Z,5.68
2023-03-17T13:33:16.392Z,3.72
2023-03-17T13:35:46.555Z,4.38
2023-03-17T13:38:21.997Z,2.25
2023-03-17T13:41:11.383Z,4.75
2023-03-17T13:43:56.897Z,4.88
2023-03-17T13:46:26.643Z,5.97
2023-03-17T13:48:54.726Z,2.83
2023-03-17T13:51:20.988Z,7.78
2023-03-17T13:53:47.695Z,3.47
2023-03-17T13:56:19.730Z,5.88
2023-03-17T13:58:52.840Z,3.05
2023-03-17T14:01:20.219Z,3.88
2023-03-17T14:03:50.661Z,2.70
2023-03-17T14:06:21.566Z,2.85
2023-03-17T14:08:49.221Z,3.50
2023-03-17T14:11:32.245Z,3.85
2023-03-17T14:14:26.125Z,8.70
2023-03-17T14:17:02.892Z,4.10
2023-03-17T14:19:29.637Z,3.40
2023-03-17T14:22:02.405Z,3.35
2023-03-17T14:24:29.890Z,4.85
2023-03-17T14:27:07.515Z,5.20
2023-03-17T14:29:33.901Z,2.90
2023-03-17T14:32:04.120Z,4.07
2023-03-17T14:34:30.558Z,4.57
2023-03-17T14:37:04.474Z,5.03
2023-03-17T14:39:31.050Z,2.95
2023-03-17T14:42:02.951Z,6.85
2023-03-17T14:44:36.371Z,3.20
2023-03-17T14:47:04.251Z,2.95
2023-03-17T14:49:31.850Z,3.95
2023-03-17T14:51:58.467Z,10.68
2023-03-17T14:54:26.744Z,3.95
2023-03-17T14:56:59.922Z,3.20
2023-03-17T14:59:36.550Z,6.35
2023-03-17T15:02:15.874Z,4.47
2023-03-17T15:04:56.615Z,6.13
2023-03-17T15:07:31.174Z,5.80
2023-03-17T15:09:58.335Z,7.38
2023-03-17T15:12:26.163Z,3.22
2023-03-17T15:14:54.362Z,6.97
2023-03-17T15:17:27.538Z,4.07
2023-03-17T15:19:55.089Z,4.35
2023-03-17T15:22:21.379Z,6.40
2023-03-17T15:24:51.944Z,11.93
2023-03-17T15:29:45.152Z,3.53
2023-03-17T15:32:13.130Z,5.07
2023-03-17T15:34:39.884Z,3.80
2023-03-17T15:37:13.377Z,4.28
2023-03-17T15:39:39.634Z,4.35
2023-03-17T15:42:06.160Z,6.50
2023-03-17T15:44:32.404Z,5.63
2023-03-17T15:46:58.871Z,3.20
2023-03-17T15:49:26.901Z,5.07
2023-03-17T15:51:53.399Z,7.43
2023-03-17T15:54:20.134Z,3.13
2023-03-17T15:56:49.630Z,3.10
2023-03-17T15:59:16.069Z,5.43
2023-03-17T16:01:43.446Z,5.13
2023-03-17T16:04:10.599Z,2.80
2023-03-17T16:06:38.932Z,5.57
2023-03-17T16:09:06.996Z,6.50
2023-03-17T16:11:35.445Z,3.63
2023-03-17T16:14:01.722Z,3.22
2023-03-17T16:16:38.427Z,4.38
2023-03-17T16:19:05.502Z,9.38
2023-03-17T16:21:32.932Z,6.53
2023-03-17T16:23:59.424Z,3.55
2023-03-17T16:26:25.927Z,4.25
2023-03-17T16:28:52.714Z,7.63
2023-03-17T16:31:21.048Z,5.30
2023-03-17T16:33:48.038Z,4.20
2023-03-17T16:36:18.480Z,11.30
2023-03-17T16:38:45.495Z,6.82
2023-03-17T16:41:18.979Z,6.53
2023-03-17T16:43:46.327Z,12.40
2023-03-17T16:46:12.858Z,7.65
2023-03-17T16:48:39.188Z,6.20
2023-03-17T16:51:05.896Z,6.20
2023-03-17T16:53:32.246Z,8.23
2023-03-17T16:55:58.596Z,4.85
2023-03-17T16:58:26.257Z,9.25
2023-03-17T17:00:55.440Z,10.07
2023-03-17T17:03:21.774Z,5.57
2023-03-17T17:05:48.132Z,7.22
2023-03-17T17:08:14.484Z,4.93
2023-03-17T17:10:41.281Z,11.38
2023-03-17T17:13:08.362Z,5.47
2023-03-17T17:15:36.098Z,9.80
2023-03-17T17:18:05.056Z,4.45
2023-03-17T17:20:37.524Z,11.35
2023-03-17T17:23:03.963Z,6.32
2023-03-17T17:25:30.863Z,11.32
2023-03-17T17:27:57.510Z,13.70
2023-03-17T17:30:25.661Z,14.10
2023-03-17T17:32:52.414Z,8.52
2023-03-17T17:35:18.859Z,18.27
2023-03-17T17:37:45.165Z,11.10
2023-03-17T17:40:12.904Z,23.63
2023-03-17T17:42:39.540Z,11.00
2023-03-17T17:45:06.065Z,15.75
2023-03-17T17:47:32.691Z,8.88
2023-03-17T17:49:59.477Z,23.52
2023-03-17T17:52:25.893Z,7.35
2023-03-17T17:54:52.144Z,13.98
2023-03-17T17:57:18.831Z,15.30
2023-03-17T17:59:45.140Z,14.82
2023-03-17T18:02:12.470Z,8.10
2023-03-17T18:04:38.989Z,11.35
2023-03-17T18:07:05.674Z,11.00
2023-03-17T18:09:32.121Z,14.75
2023-03-17T18:11:58.598Z,15.38
2023-03-17T18:14:24.938Z,15.25
2023-03-17T18:16:51.406Z,14.77
2023-03-17T18:19:17.808Z,17.40
2023-03-17T18:21:44.567Z,19.15
2023-03-17T18:24:11.130Z,12.80
2023-03-17T18:26:37.813Z,22.15
2023-03-17T18:29:04.380Z,12.98
2023-03-17T18:31:46.101Z,18.27
2023-03-17T18:34:21.013Z,14.15
2023-03-17T18:36:47.981Z,16.48
2023-03-17T18:39:15.291Z,13.60
2023-03-17T18:41:42.436Z,16.05
2023-03-17T18:44:10.128Z,15.55
2023-03-17T18:46:37.160Z,14.45
2023-03-17T18:49:04.351Z,10.90
2023-03-17T18:51:30.767Z,9.85
2023-03-17T18:53:57.517Z,10.85
2023-03-17T18:56:26.533Z,10.55
2023-03-17T18:58:52.946Z,11.23
2023-03-17T19:01:19.266Z,10.57
2023-03-17T19:03:45.812Z,11.77
2023-03-17T19:06:13.730Z,19.27
2023-03-17T19:08:40.049Z,21.67
2023-03-17T19:11:07.522Z,18.63
2023-03-17T19:13:33.889Z,12.23
2023-03-17T19:16:00.478Z,15.77
2023-03-17T19:18:27.178Z,9.43
2023-03-17T19:20:54.304Z,12.90
2023-03-17T19:23:20.621Z,7.90
2023-03-17T19:25:46.909Z,12.50
2023-03-17T19:28:13.217Z,11.45
2023-03-17T19:30:39.666Z,6.88
2023-03-17T19:33:06.691Z,7.75
2023-03-17T19:35:33.036Z,10.10
2023-03-17T19:37:59.294Z,6.65
2023-03-17T19:40:25.908Z,13.13
2023-03-17T19:42:52.259Z,6.55
2023-03-17T19:45:18.661Z,6.60
2023-03-17T19:47:45.059Z,5.55
2023-03-17T19:50:11.571Z,4.57
2023-03-17T19:52:37.868Z,6.47
2023-03-17T19:55:07.015Z,11.35
2023-03-17T19:57:34.608Z,7.28
2023-03-17T20:00:00.906Z,8.52
2023-03-17T20:02:27.180Z,10.38
2023-03-17T20:04:53.731Z,7.18
2023-03-17T20:07:20.161Z,11.90
2023-03-17T20:09:47.933Z,6.28
2023-03-17T20:12:14.378Z,8.40
2023-03-17T20:14:41.015Z,6.63
2023-03-17T20:17:07.301Z,5.13
2023-03-17T20:19:33.652Z,5.55
2023-03-17T20:21:59.989Z,6.63
2023-03-17T20:24:28.548Z,6.68
2023-03-17T20:26:57.211Z,6.88
2023-03-17T20:29:24.081Z,9.13
2023-03-17T20:31:50.604Z,9.07
2023-03-17T20:34:16.925Z,9.38
2023-03-17T20:36:43.185Z,6.57
2023-03-17T20:39:13.656Z,8.10
2023-03-17T20:41:39.975Z,7.20
2023-03-17T20:44:06.418Z,9.40
2023-03-17T20:46:33.053Z,10.55
2023-03-17T20:49:01.041Z,9.85
2023-03-17T20:51:27.333Z,10.30
2023-03-17T20:53:54.931Z,12.00
2023-03-17T20:56:22.325Z,10.13
2023-03-17T20:58:48.827Z,6.55
2023-03-17T21:01:16.472Z,7.97
2023-03-17T21:03:43.793Z,18.30
2023-03-17T21:06:10.470Z,14.65
2023-03-17T21:08:37.736Z,8.25
2023-03-17T21:11:08.032Z,10.60
2023-03-17T21:13:34.863Z,10.77
2023-03-17T21:16:02.179Z,8.50
2023-03-17T21:18:29.531Z,9.82
2023-03-17T21:20:56.628Z,8.90
2023-03-17T21:23:23.610Z,11.32
2023-03-17T21:25:55.140Z,8.00
2023-03-17T21:28:22.698Z,6.88
2023-03-17T21:30:49.596Z,10.38
2023-03-17T21:33:15.927Z,10.90
2023-03-17T21:35:42.243Z,9.82
2023-03-17T21:38:08.832Z,7.07
2023-03-17T21:40:35.154Z,12.05
2023-03-17T21:43:01.548Z,10.80
2023-03-17T21:45:28.042Z,9.95
2023-03-17T21:47:54.890Z,11.77
2023-03-17T21:50:21.476Z,8.57
2023-03-17T21:52:48.633Z,10.43
2023-03-17T21:55:15.748Z,8.15
2023-03-17T21:57:42.024Z,11.60
2023-03-17T22:00:09.595Z,11.38
2023-03-17T22:02:36.970Z,11.82
2023-03-17T22:05:04.234Z,10.90
2023-03-17T22:07:30.948Z,12.07
2023-03-17T22:09:57.853Z,10.40
2023-03-17T22:12:24.439Z,14.20
2023-03-17T22:14:51.180Z,13.48
2023-03-17T22:17:17.476Z,9.82
2023-03-17T22:19:44.019Z,9.95
2023-03-17T22:22:14.534Z,11.13
2023-03-17T22:24:41.088Z,9.88
2023-03-17T22:27:08.299Z,10.50
2023-03-17T22:29:35.436Z,11.95
2023-03-17T22:32:02.326Z,9.23
2023-03-17T22:34:28.650Z,8.95
2023-03-17T22:36:55.154Z,10.38
2023-03-17T22:39:21.502Z,10.48
2023-03-17T22:41:47.899Z,14.10
2023-03-17T22:44:14.161Z,10.90
2023-03-17T22:46:43.140Z,9.50
2023-03-17T22:49:09.930Z,12.02
2023-03-17T22:51:36.742Z,14.45
2023-03-17T22:54:03.480Z,10.85
2023-03-17T22:56:30.204Z,11.30
2023-03-17T22:58:56.586Z,10.63
2023-03-17T23:01:25.600Z,6.85
2023-03-17T23:03:52.542Z,10.48
2023-03-17T23:06:19.548Z,13.52
2023-03-17T23:08:46.484Z,15.02
2023-03-17T23:11:16.256Z,11.40
2023-03-17T23:13:42.480Z,13.27
2023-03-17T23:16:09.251Z,10.73
2023-03-17T23:18:35.501Z,13.23
2023-03-17T23:21:02.379Z,10.10
2023-03-17T23:23:28.740Z,11.57
2023-03-17T23:25:55.086Z,13.90
2023-03-17T23:28:21.408Z,11.75
2023-03-17T23:30:47.814Z,10.80
2023-03-17T23:33:15.272Z,15.45
2023-03-17T23:35:41.604Z,11.88
2023-03-17T23:38:08.664Z,15.45
2023-03-17T23:40:35.092Z,14.57
2023-03-17T23:43:01.805Z,10.32
2023-03-17T23:45:28.386Z,9.70
2023-03-17T23:47:55.801Z,12.25
2023-03-17T23:50:22.181Z,9.95
2023-03-17T23:52:49.230Z,10.50
2023-03-17T23:55:17.580Z,9.40
2023-03-17T23:57:44.228Z,15.57
